Weather observations for the past three days for
Gillespie Field Airport
| Date | Time (pdt) | Wind (kph) | Vis. (km) | Weather | Sky Cond. | Temperature (ºC) | Relative Humidity | Wind Chill (°C) | Heat Index (°C) | Pressure | Precipitation (cm) | ||||||
|---|---|---|---|---|---|---|---|---|---|---|---|---|---|---|---|---|---|
| Air | Dwpt | 6 hour | altimeter (cm) | sea level (mb) | 1 hr | 3 hr | 6 hr | ||||||||||
| Max. | Min. | ||||||||||||||||
| 09 | 00:55 | Calm | 16.09 | Overcast | OVC009 | 16 | 14 | 88% | 76.07 | 0.0 | |||||||
| 09 | 00:35 | NW 7 | 16.09 | Overcast | OVC009 | 16 | 14 | 88% | 76.07 | 0.0 | |||||||
| 09 | 00:15 | NW 6 | 16.09 | Overcast | OVC009 | 16 | 14 | 88% | 76.1 | 0.0 | |||||||
| 08 | 23:55 | NW 7 | 16.09 | Mostly Cloudy | BKN011 | 16 | 14 | 88% | 76.1 | 0.0 | |||||||
| 08 | 23:35 | Calm | 16.09 | Fair | CLR | 16 | 14 | 88% | 76.1 | 0.0 | |||||||
| 08 | 23:15 | NW 6 | 16.09 | Fair | CLR | 16 | 14 | 88% | 76.1 | 0.0 | |||||||
| 08 | 22:55 | W 7 | 16.09 | Fair | CLR | 16 | 14 | 88% | 76.1 | 0.0 | |||||||
| 08 | 22:35 | NW 7 | 16.09 | Fair | CLR | 16 | 14 | 88% | 76.12 | 0.0 | |||||||
| 08 | 22:15 | NW 9 | 16.09 | Fair | CLR | 16 | 14 | 88% | 76.12 | 0.0 | |||||||
| 08 | 21:55 | W 11 | 16.09 | Fair | CLR | 16 | 14 | 88% | 76.12 | 0.0 | |||||||
| 08 | 21:35 | NW 7 | 16.09 | Fair | CLR | 17 | 14 | 83% | 76.1 | 0.0 | |||||||
| 08 | 21:15 | W 11 | 16.09 | Fair | CLR | 17 | 14 | 83% | 76.1 | 0.0 | |||||||
| 08 | 20:55 | W 13 | 16.09 | Fair | CLR | 17 | 14 | 83% | 76.07 | 0.0 | |||||||
| 08 | 20:47 | W 13 | 16.09 | Clear | SKC | 17 | 14 | 83% | 76.12 | 0.0 | |||||||
| 08 | 19:47 | W 13 | 16.09 | Clear | SKC | 19 | 14 | 73% | 76.07 | 0.0 | |||||||
| 08 | 18:47 | W 13 | 16.09 | Clear | SKC | 22 | 14 | 61% | 76.02 | 0.0 | |||||||
| 08 | 17:47 | W 17 | 16.09 | Clear | SKC | 23 | 14 | 57% | 76.02 | 0.0 | |||||||
| 08 | 16:47 | W 19 | 16.09 | Clear | SKC | 24 | 14 | 54% | 25 | 76.02 | 0.0 | ||||||
| 08 | 15:47 | W 20 | 16.09 | Clear | SKC | 25 | 13 | 47% | 26 | 76.05 | 0.0 | ||||||
| 08 | 14:47 | SW 17 | 16.09 | Clear | SKC | 27 | 15 | 48% | 27 | 76.07 | 0.0 | ||||||
| 08 | 13:47 | Vrbl 11 | 16.09 | Clear | SKC | 27 | 14 | 45% | 27 | 76.07 | 0.0 | ||||||
| 08 | 12:47 | Vrbl 7 | 16.09 | Clear | SKC | 26 | 13 | 45% | 26 | 76.12 | 0.0 | ||||||
| 08 | 11:47 | Vrbl 9 | 16.09 | Clear | SKC | 23 | 14 | 57% | 76.17 | 0.0 | |||||||
| 08 | 10:47 | Calm | 16.09 | Clear | SKC | 20 | 14 | 69% | 76.23 | 0.0 | |||||||
| 08 | 09:47 | Calm | 14.48 | Overcast | OVC012 | 18 | 14 | 78% | 76.25 | 0.0 | |||||||
| 08 | 08:47 | Calm | 12.87 | Overcast | OVC011 | 17 | 14 | 83% | 76.28 | 0.0 | |||||||
| 08 | 07:47 | Calm | 11.27 | Overcast | OVC011 | 17 | 14 | 83% | 76.28 | 0.0 | |||||||
| 08 | 06:47 | Calm | 11.27 | Overcast | OVC011 | 16 | 14 | 88% | 76.25 | 0.0 | |||||||
| 08 | 06:35 | Calm | 14.48 | Overcast | OVC011 | 16 | 13 | 83% | 76.2 | 0.0 | |||||||
| 08 | 06:15 | Calm | 16.09 | Overcast | OVC011 | 16 | 13 | 83% | 76.2 | 0.0 | |||||||
| 08 | 05:55 | Calm | 16.09 | Overcast | OVC011 | 16 | 13 | 83% | 76.17 | 0.0 | |||||||
| 08 | 05:35 | Calm | 16.09 | Overcast | OVC011 | 16 | 14 | 88% | 76.17 | 0.0 | |||||||
| 08 | 05:15 | E 9 | 16.09 | Overcast | OVC011 | 16 | 14 | 88% | 76.17 | 0.0 | |||||||
| 08 | 04:55 | E 7 | 16.09 | Overcast | OVC011 | 16 | 14 | 88% | 76.17 | 0.0 | |||||||
| 08 | 04:35 | Calm | 16.09 | Overcast | OVC011 | 16 | 14 | 88% | 76.17 | 0.0 | |||||||
| 08 | 04:15 | E 7 | 16.09 | Overcast | OVC011 | 16 | 14 | 88% | 76.17 | 0.0 | |||||||
| 08 | 03:55 | Vrbl 7 | 16.09 | Overcast | OVC012 | 17 | 14 | 83% | 76.17 | 0.0 | |||||||
| 08 | 03:35 | SW 6 | 16.09 | Overcast | OVC012 | 17 | 14 | 83% | 76.17 | 0.0 | |||||||
| 08 | 03:15 | Calm | 16.09 | Overcast | OVC012 | 17 | 14 | 83% | 76.17 | 0.0 | |||||||
| 08 | 02:55 | SE 7 | 16.09 | Overcast | OVC013 | 17 | 14 | 83% | 76.17 | 0.0 | |||||||
| 08 | 02:35 | S 7 | 16.09 | Overcast | OVC013 | 17 | 14 | 83% | 76.17 | 0.0 | |||||||
| 08 | 02:15 | E 9 | 16.09 | Overcast | OVC013 | 17 | 14 | 83% | 76.17 | 0.0 | |||||||
| 08 | 01:55 | S 7 | 16.09 | Overcast | OVC013 | 17 | 14 | 83% | 76.17 | 0.0 | |||||||
| 08 | 01:35 | Calm | 16.09 | Overcast | OVC013 | 17 | 14 | 83% | 76.2 | 0.0 | |||||||
| 08 | 01:15 | SE 7 | 16.09 | Overcast | OVC013 | 17 | 14 | 83% | 76.2 | 0.0 | |||||||
| 08 | 00:55 | Calm | 16.09 | Overcast | OVC013 | 17 | 14 | 83% | 76.23 | 0.0 | |||||||
| 08 | 00:35 | Calm | 16.09 | Overcast | OVC013 | 17 | 14 | 83% | 76.23 | 0.0 | |||||||
| 08 | 00:15 | Calm | 16.09 | Overcast | OVC013 | 17 | 14 | 83% | 76.25 | 0.0 | |||||||
| 07 | 23:55 | Calm | 16.09 | Overcast | OVC013 | 17 | 14 | 83% | 76.25 | 0.0 | |||||||
| 07 | 23:35 | SE 7 | 16.09 | Overcast | OVC013 | 17 | 14 | 83% | 76.25 | 0.0 | |||||||
| 07 | 23:15 | Calm | 16.09 | Overcast | OVC013 | 17 | 14 | 83% | 76.25 | 0.0 | |||||||
| 07 | 22:55 | Calm | 16.09 | Overcast | OVC013 | 17 | 14 | 83% | 76.25 | 0.0 | |||||||
| 07 | 22:35 | Calm | 16.09 | Overcast | OVC013 | 17 | 14 | 83% | 76.25 | 0.0 | |||||||
| 07 | 22:15 | Calm | 16.09 | Overcast | OVC013 | 17 | 14 | 83% | 76.25 | 0.0 | |||||||
| 07 | 21:55 | SW 6 | 16.09 | Mostly Cloudy | BKN015 | 16 | 13 | 83% | 76.25 | 0.0 | |||||||
| 07 | 21:35 | Calm | 16.09 | Fair | CLR | 17 | 13 | 77% | 76.23 | 0.0 | |||||||
| 07 | 21:15 | S 9 | 16.09 | Fair | CLR | 17 | 14 | 83% | 76.2 | 0.0 | |||||||
| 07 | 20:55 | S 7 | 16.09 | Fair | CLR | 17 | 13 | 77% | 76.17 | 0.0 | |||||||
| 07 | 19:59 | Vrbl 9 | 16.09 | Clear | SKC | 18 | 14 | 78% | 76.2 | 0.0 | |||||||
| 07 | 18:47 | W 11 | 16.09 | Clear | SKC | 22 | 14 | 61% | 76.1 | 0.0 | |||||||
| 07 | 17:47 | W 17 | 16.09 | Clear | SKC | 22 | 13 | 57% | 76.1 | 0.0 | |||||||
| 07 | 16:47 | W 13 | 16.09 | Clear | SKC | 24 | 13 | 50% | 25 | 76.1 | 0.0 | ||||||
| 07 | 15:47 | W 15 | 16.09 | Clear | SKC | 24 | 14 | 54% | 25 | 76.1 | 0.0 | ||||||
| 07 | 14:47 | W 11 | 16.09 | Clear | SKC | 24 | 13 | 50% | 25 | 76.12 | 0.0 | ||||||
| 07 | 13:47 | W 17 | 16.09 | Clear | SKC | 24 | 14 | 54% | 25 | 76.15 | 0.0 | ||||||
| 07 | 12:47 | W 15 G 30 | 16.09 | Clear | SKC | 24 | 13 | 50% | 25 | 76.15 | 0.0 | ||||||
| 07 | 11:47 | W 9 | 16.09 | Clear | SKC | 23 | 13 | 53% | 76.2 | 0.0 | |||||||
| 07 | 10:47 | Calm | 16.09 | Clear | SKC | 21 | 12 | 57% | 76.25 | 0.0 | |||||||
| 07 | 09:47 | Calm | 16.09 | Clear | SKC | 19 | 13 | 68% | 76.28 | 0.0 | |||||||
| 07 | 08:47 | W 7 | 16.09 | Partly Cloudy | SCT012 | 16 | 13 | 83% | 76.33 | 0.0 | |||||||
| 07 | 07:47 | W 9 | 16.09 | Partly Cloudy | SCT012 | 14 | 12 | 88% | 76.3 | 0.0 | |||||||
| 07 | 06:47 | Calm | 16.09 | Mostly Cloudy | BKN009 | 13 | 12 | 94% | 76.28 | 0.0 | |||||||
| 07 | 06:35 | Calm | 16.09 | Mostly Cloudy | BKN009 | 12 | 11 | 94% | 76.25 | 0.0 | |||||||
| 07 | 06:15 | NW 6 | 16.09 | Fair | CLR | 12 | 10 | 88% | 76.25 | 0.0 | |||||||
| 07 | 05:55 | Calm | 16.09 | Partly Cloudy | SCT009 | 13 | 11 | 88% | 76.23 | 0.0 | |||||||
| 07 | 05:35 | E 6 | 16.09 | Partly Cloudy | SCT010 | 12 | 11 | 94% | 76.23 | 0.0 | |||||||
| 07 | 05:15 | Calm | 16.09 | Overcast | OVC010 | 12 | 11 | 94% | 76.2 | 0.0 | |||||||
| 07 | 04:55 | Calm | 16.09 | Partly Cloudy | SCT010 | 12 | 10 | 88% | 76.2 | 0.0 | |||||||
| 07 | 04:35 | Calm | 16.09 | Fair | CLR | 12 | 11 | 94% | 76.23 | 0.0 | |||||||
| 07 | 04:15 | Calm | 16.09 | Fair | CLR | 12 | 11 | 94% | 76.2 | 0.0 | |||||||
| 07 | 03:55 | Calm | 16.09 | Fair | CLR | 12 | 11 | 94% | 76.23 | 0.0 | |||||||
| 07 | 03:35 | Calm | 16.09 | Fair | CLR | 12 | 11 | 94% | 76.23 | 0.0 | |||||||
| 07 | 03:15 | NW 6 | 16.09 | Fair | CLR | 13 | 11 | 88% | 76.23 | 0.0 | |||||||
| 07 | 02:55 | W 7 | 16.09 | Fair | CLR | 12 | 11 | 94% | 76.23 | 0.0 | |||||||
| 07 | 02:35 | W 6 | 16.09 | Fair | CLR | 13 | 11 | 88% | 76.25 | 0.0 | |||||||
| 07 | 02:15 | W 6 | 16.09 | Fair | CLR | 13 | 11 | 88% | 76.25 | 0.0 | |||||||
| 07 | 01:55 | Calm | 16.09 | Fair | CLR | 14 | 11 | 82% | 76.28 | 0.0 | |||||||
| 07 | 01:35 | Calm | 16.09 | Fair | CLR | 14 | 12 | 88% | 76.3 | 0.0 | |||||||
| 07 | 01:15 | Calm | 16.09 | Fair | CLR | 14 | 12 | 88% | 76.3 | 0.0 | |||||||
| 07 | 00:55 | NW 7 | 16.09 | Fair | CLR | 14 | 12 | 88% | 76.3 | 0.0 | |||||||
| 07 | 00:35 | Calm | 16.09 | Fair | CLR | 14 | 12 | 88% | 76.3 | 0.0 | |||||||
| 07 | 00:15 | Calm | 16.09 | Fair | CLR | 14 | 12 | 88% | 76.3 | 0.0 | |||||||
| 06 | 23:55 | Calm | 16.09 | Fair | CLR | 15 | 12 | 82% | 76.33 | 0.0 | |||||||
| 06 | 23:35 | Calm | 16.09 | Fair | CLR | 15 | 12 | 82% | 76.33 | 0.0 | |||||||
| 06 | 23:15 | NW 7 | 16.09 | Fair | CLR | 15 | 12 | 82% | 76.33 | 0.0 | |||||||
| 06 | 22:55 | Calm | 16.09 | Fair | CLR | 16 | 12 | 77% | 76.33 | 0.0 | |||||||
| 06 | 22:35 | W 6 | 16.09 | Fair | CLR | 16 | 12 | 77% | 76.33 | 0.0 | |||||||
| 06 | 22:15 | Calm | 16.09 | Fair | CLR | 16 | 12 | 77% | 76.33 | 0.0 | |||||||
| 06 | 21:55 | Calm | 16.09 | Fair | CLR | 16 | 12 | 77% | 76.33 | 0.0 | |||||||
| 06 | 21:35 | NW 6 | 16.09 | Fair | CLR | 16 | 12 | 77% | 76.3 | 0.0 | |||||||
| 06 | 21:15 | NW 7 | 16.09 | Fair | CLR | 17 | 12 | 73% | 76.3 | 0.0 | |||||||
| 06 | 20:47 | W 13 | 16.09 | Clear | SKC | 17 | 12 | 73% | 76.33 | 0.0 | |||||||
| 06 | 19:47 | W 13 | 16.09 | Clear | SKC | 18 | 12 | 68% | 76.28 | 0.0 | |||||||
| 06 | 18:47 | W 19 | 16.09 | Clear | SKC | 19 | 12 | 64% | 76.25 | 0.0 | |||||||
| 06 | 17:47 | W 19 | 16.09 | Clear | SKC | 21 | 11 | 53% | 76.23 | 0.0 | |||||||
| 06 | 16:47 | W 20 | 16.09 | Clear | SKC | 22 | 12 | 53% | 76.2 | 0.0 | |||||||
| 06 | 15:47 | W 22 | 16.09 | Clear | SKC | 22 | 11 | 50% | 76.2 | 0.0 | |||||||
| 06 | 14:47 | W 20 G 33 | 16.09 | Clear | SKC | 22 | 11 | 50% | 76.23 | 0.0 | |||||||
| 06 | 13:47 | W 20 | 16.09 | Clear | SKC | 23 | 11 | 47% | 76.25 | 0.0 | |||||||
| 06 | 12:47 | W 19 G 26 | 16.09 | Clear | SKC | 23 | 10 | 44% | 76.3 | 0.0 | |||||||
| 06 | 11:47 | SW 7 | 16.09 | Clear | SKC | 22 | 9 | 44% | 76.33 | 0.0 | |||||||
| 06 | 10:47 | W 15 | 16.09 | Clear | SKC | 20 | 10 | 53% | 76.38 | 0.0 | |||||||
| 06 | 09:47 | W 13 | 16.09 | A Few Clouds | FEW025 | 17 | 10 | 64% | 76.4 | 0.0 | |||||||
| 06 | 07:47 | Calm | 16.09 | A Few Clouds | FEW025 | 13 | 9 | 77% | 76.45 | 0.0 | |||||||
| 06 | 06:47 | Calm | 16.09 | Mostly Cloudy | BKN027 | 12 | 9 | 82% | 76.43 | 0.0 | |||||||
| 06 | 06:35 | Calm | 16.09 | Mostly Cloudy | BKN028 | 12 | 9 | 82% | 76.38 | 0.0 | |||||||
| 06 | 06:15 | Calm | 16.09 | Overcast | OVC028 | 11 | 9 | 88% | 76.38 | 0.0 | |||||||
| 06 | 05:55 | Calm | 16.09 | Mostly Cloudy | BKN028 | 11 | 9 | 88% | 76.35 | 0.0 | |||||||
| 06 | 05:35 | Calm | 16.09 | Mostly Cloudy | BKN030 | 11 | 9 | 88% | 76.35 | 0.0 | |||||||
| 06 | 05:15 | NW 7 | 16.09 | Overcast | OVC029 | 11 | 9 | 88% | 76.33 | 0.0 | |||||||
| 06 | 04:55 | N 6 | 16.09 | Mostly Cloudy | BKN029 | 11 | 9 | 88% | 76.33 | 0.0 | |||||||
| 06 | 04:35 | Calm | 16.09 | Mostly Cloudy | BKN029 | 11 | 9 | 88% | 76.33 | 0.0 | |||||||
| 06 | 04:15 | Calm | 16.09 | Overcast | BKN025 OVC030 | 11 | 9 | 88% | 76.33 | 0.0 | |||||||
| 06 | 03:55 | Calm | 16.09 | Overcast | OVC025 | 11 | 9 | 88% | 76.33 | 0.0 | |||||||
| 06 | 03:35 | Calm | 16.09 | Overcast | BKN026 OVC032 | 11 | 9 | 88% | 76.33 | 0.0 | |||||||
| 06 | 03:15 | Calm | 16.09 | Mostly Cloudy | FEW026 BKN033 | 11 | 9 | 88% | 76.33 | 0.0 | |||||||
| 06 | 02:55 | NW 6 | 16.09 | Mostly Cloudy | BKN034 | 11 | 9 | 88% | 76.3 | 0.0 | |||||||
| 06 | 02:35 | Calm | 16.09 | A Few Clouds | FEW033 | 11 | 9 | 88% | 76.3 | 0.0 | |||||||
| 06 | 02:15 | Calm | 16.09 | Fair | CLR | 11 | 9 | 88% | 76.3 | 0.0 | |||||||
| 06 | 01:55 | Calm | 16.09 | A Few Clouds | FEW028 | 0 | 0 | 0% | 76.33 | 0.0 | |||||||
| 06 | 01:35 | Calm | 16.09 | A Few Clouds | FEW027 | 13 | 9 | 77% | 76.35 | 0.0 | |||||||
| 06 | 01:15 | Calm | 16.09 | Fair | CLR | 13 | 9 | 77% | 76.35 | 0.0 | |||||||
| Date | Time (pdt) | Wind (kph) | Vis. (km) | Weather | Sky Cond. | Air | Dwpt | Max. | Min. | Relative Humidity | Wind Chill (°C) | Heat Index (°C) | altimeter (cm) | sea level (mb) | 1 hr | 3 hr | 6 hr |
| 6 hour | |||||||||||||||||
| Temperature (ºC) | Pressure | Precipitation (cm) | |||||||||||||||